Cacilhas — VRUA8 — position and weather

sailwx.info

Track history (hours):
 
Tides and Currents Weather Stations Pressure Air Temp Water Temp Dewpoint Dewpoint Depression Visibility Wind Speed Wind Dir Waves Ship Positions

Cacilhas

Last reported at 2016-Feb-06 02:30 UTC. Time now 2016-Feb-06 02:51 UTC.
Position N 22°16' E 114°04'.

Length 29 m; draft 4.6 m.

Type: High speed craft. MMSI: 477092000.

Date/timePositionNaut miles runAvg speedWind from/ knotsBaromVisibWave heightAir tempDewpointWater temp
2016-Feb-06 02:30N 22°16' E 114°04'3 3.1
2016-Feb-06 01:33N 22°17' E 114°07'3121.2
2016-Feb-06 00:05N 22°11' E 113°34'2739.7
2016-Feb-05 23:24N 22°15' E 114°03'6 7.3
2016-Feb-05 22:33N 22°17' E 114°09'0 0.1
2016-Feb-05 21:33N 22°17' E 114°09'0 0.1
2016-Feb-05 20:33N 22°17' E 114°09'0 0.1
2016-Feb-05 19:33N 22°17' E 114°09'0 0.0
2016-Feb-05 18:33N 22°17' E 114°09'18 8.8
2016-Feb-05 16:33N 22°11' E 113°51'1817.5
2016-Feb-05 15:34N 22°17' E 114°09'19 9.3
2016-Feb-05 13:33N 22°11' E 113°50'1918.6
2016-Feb-05 12:33N 22°17' E 114°09'5 2.1
2016-Feb-05 10:16N 22°16' E 114°04'5 6.6
2016-Feb-05 09:34N 22°17' E 114°09'3322.9
2016-Feb-05 08:07N 22°11' E 113°34'2939.5
2016-Feb-05 07:23N 22°16' E 114°05'4 5.1
2016-Feb-05 06:33N 22°17' E 114°09'3316.3
2016-Feb-05 04:32N 22°11' E 113°34'3333.7
2016-Feb-05 03:33N 22°17' E 114°09'1716.8
2016-Feb-05 02:31N 22°11' E 113°52'1616.3
2016-Feb-05 01:31N 22°11' E 113°34'3334.5
2016-Feb-05 00:33N 22°17' E 114°09'1817.6
2016-Feb-04 23:33N 22°11' E 113°51'16 2.5
2016-Feb-04 17:10N 22°12' E 113°34'2835.5
2016-Feb-04 16:22N 22°15' E 114°04'5 6.4
2016-Feb-04 15:34N 22°17' E 114°09'3322.8
2016-Feb-04 14:06N 22°12' E 113°34'2836.7
2016-Feb-04 13:21N 22°15' E 114°03'6 7.4
2016-Feb-04 12:34N 22°17' E 114°09'5 2.1
2016-Feb-04 10:18N 22°16' E 114°04'4 5.7
2016-Feb-04 09:34N 22°17' E 114°09'3322.6
2016-Feb-04 08:06N 22°12' E 113°34'2937.2
2016-Feb-04 07:19N 22°16' E 114°05'2 2.7
2016-Feb-04 06:33N 22°17' E 114°07'3114.7
2016-Feb-04 04:28N 22°11' E 113°34'3335.7
2016-Feb-04 03:33N 22°17' E 114°09'2018.5
2016-Feb-04 02:30N 22°11' E 113°49'10 8.9
2016-Feb-04 01:23N 22°11' E 113°38'2935.3
2016-Feb-04 00:33N 22°17' E 114°09'1817.5
2016-Feb-03 23:33N 22°11' E 113°51'7 0.5
2016-Feb-03 09:32N 22°12' E 113°44'2424.1
2016-Feb-03 08:33N 22°17' E 114°09'0 0.1
2016-Feb-03 07:33N 22°17' E 114°09'0 0.1
2016-Feb-03 06:33N 22°17' E 114°09'0 0.2
2016-Feb-03 05:33N 22°17' E 114°09'2 0.6
2016-Feb-03 01:30N 22°20' E 114°09'0 0.0
2016-Feb-03 00:33N 22°20' E 114°09'0 0.0
2016-Feb-02 09:20N 22°20' E 114°09'0 0.0
2016-Feb-02 08:33N 22°20' E 114°09'0 0.0
2016-Feb-02 07:33N 22°20' E 114°09'0 0.0
2016-Feb-02 06:33N 22°20' E 114°09'0 0.0
2016-Feb-02 05:30N 22°20' E 114°09'0 0.0
2016-Feb-02 03:25N 22°20' E 114°09'0 0.0
2016-Feb-02 02:33N 22°20' E 114°09'0 0.0
2016-Feb-02 01:33N 22°20' E 114°09'0 0.0
2016-Feb-02 00:33N 22°20' E 114°09'0 0.0
2016-Feb-01 09:08N 22°20' E 114°09'2 4.0
2016-Feb-01 08:32N 22°17' E 114°09'0 0.0
2016-Feb-01 07:34N 22°17' E 114°09'0 0.0
2016-Feb-01 06:33N 22°17' E 114°09'0 0.0
2016-Feb-01 05:33N 22°17' E 114°09'0 0.0
2016-Feb-01 04:34N 22°17' E 114°09'1 0.8
2016-Feb-01 03:34N 22°18' E 114°09'2 1.5
2016-Feb-01 02:33N 22°20' E 114°09'0 0.0
2016-Feb-01 01:33N 22°20' E 114°09'0 0.0
2016-Feb-01 00:33N 22°20' E 114°09'0 0.0
2016-Jan-30 06:30N 22°20' E 114°09'0 0.0
2016-Jan-30 03:15N 22°20' E 114°09'0 0.0
2016-Jan-30 02:33N 22°20' E 114°09'0 0.0
2016-Jan-30 01:33N 22°20' E 114°09'0 0.0
2016-Jan-30 00:25N 22°20' E 114°09'0 0.0
2016-Jan-29 09:33N 22°20' E 114°09'0 0.0
2016-Jan-29 08:34N 22°20' E 114°09'0 0.0
2016-Jan-29 07:33N 22°20' E 114°09'0 0.0
2016-Jan-29 06:33N 22°20' E 114°09'0 0.0
2016-Jan-29 05:33N 22°20' E 114°09'0 0.0
2016-Jan-29 03:27N 22°20' E 114°09'0 0.0
2016-Jan-29 02:34N 22°20' E 114°09'2 1.1
2016-Jan-29 00:21N 22°17' E 114°09'0 0.1
2016-Jan-28 23:33N 22°17' E 114°09'0 0.0
2016-Jan-28 22:33N 22°17' E 114°09'0 0.0
2016-Jan-28 21:33N 22°17' E 114°09'0 0.0
2016-Jan-28 20:33N 22°17' E 114°09'0 0.0
2016-Jan-28 19:34N 22°17' E 114°09'0 0.0
2016-Jan-28 18:33N 22°17' E 114°09'0 0.0
2016-Jan-28 17:33N 22°17' E 114°09'0 0.0
2016-Jan-28 16:33N 22°17' E 114°09'0 0.0
2016-Jan-28 15:33N 22°17' E 114°09'0 0.0
2016-Jan-28 14:34N 22°17' E 114°09'0 0.0
2016-Jan-28 13:34N 22°17' E 114°09'0 0.0
2016-Jan-28 12:33N 22°17' E 114°09'0 0.0
2016-Jan-28 11:33N 22°17' E 114°09'0 0.0
2016-Jan-28 10:34N 22°17' E 114°09'0 0.1
2016-Jan-28 09:33N 22°17' E 114°09'0 0.1
2016-Jan-28 08:34N 22°17' E 114°09'1 0.7
2016-Jan-28 06:33N 22°18' E 114°08'2 1.9
2016-Jan-28 05:33N 22°19' E 114°09'1 0.9
2016-Jan-28 04:33N 22°20' E 114°09'0 0.0
2016-Jan-28 03:34N 22°20' E 114°09'0 0.0
2016-Jan-28 02:33N 22°20' E 114°09'0 0.0
2016-Jan-28 01:34N 22°20' E 114°09'0 0.0
2016-Jan-28 00:33N 22°20' E 114°09'0 0.0
2016-Jan-27 10:25N 22°20' E 114°09'0 0.0
2016-Jan-27 09:33N 22°20' E 114°09'0 0.0
2016-Jan-27 08:33N 22°20' E 114°09'0 0.0
2016-Jan-27 07:33N 22°20' E 114°09'0 0.0
2016-Jan-27 06:33N 22°20' E 114°09'0 0.0
2016-Jan-27 05:33N 22°20' E 114°09'0 0.0
2016-Jan-27 03:21N 22°20' E 114°09'0 0.0
2016-Jan-27 02:34N 22°20' E 114°09'  
Track history (hours):
 
Tides and Currents Weather Stations Pressure Air Temp Water Temp Dewpoint Dewpoint Depression Visibility Wind Speed Wind Dir Waves Ship Positions

Cacilhas

Last reported at 2016-Feb-06 02:30 UTC. Time now 2016-Feb-06 02:51 UTC.
Position N 22°16' E 114°04'.

Length 29 m; draft 4.6 m.

Type: High speed craft. MMSI: 477092000.

Date/timePositionNaut miles runAvg speedWind from/ knotsBaromVisibWave heightAir tempDewpointWater temp
2016-Feb-06 02:30N 22°16' E 114°04'3 3.1
2016-Feb-06 01:33N 22°17' E 114°07'3121.2
2016-Feb-06 00:05N 22°11' E 113°34'2739.7
2016-Feb-05 23:24N 22°15' E 114°03'6 7.3
2016-Feb-05 22:33N 22°17' E 114°09'0 0.1
2016-Feb-05 21:33N 22°17' E 114°09'0 0.1
2016-Feb-05 20:33N 22°17' E 114°09'0 0.1
2016-Feb-05 19:33N 22°17' E 114°09'0 0.0
2016-Feb-05 18:33N 22°17' E 114°09'18 8.8
2016-Feb-05 16:33N 22°11' E 113°51'1817.5
2016-Feb-05 15:34N 22°17' E 114°09'19 9.3
2016-Feb-05 13:33N 22°11' E 113°50'1918.6
2016-Feb-05 12:33N 22°17' E 114°09'5 2.1
2016-Feb-05 10:16N 22°16' E 114°04'5 6.6
2016-Feb-05 09:34N 22°17' E 114°09'3322.9
2016-Feb-05 08:07N 22°11' E 113°34'2939.5
2016-Feb-05 07:23N 22°16' E 114°05'4 5.1
2016-Feb-05 06:33N 22°17' E 114°09'3316.3
2016-Feb-05 04:32N 22°11' E 113°34'3333.7
2016-Feb-05 03:33N 22°17' E 114°09'1716.8
2016-Feb-05 02:31N 22°11' E 113°52'1616.3
2016-Feb-05 01:31N 22°11' E 113°34'3334.5
2016-Feb-05 00:33N 22°17' E 114°09'1817.6
2016-Feb-04 23:33N 22°11' E 113°51'16 2.5
2016-Feb-04 17:10N 22°12' E 113°34'2835.5
2016-Feb-04 16:22N 22°15' E 114°04'5 6.4
2016-Feb-04 15:34N 22°17' E 114°09'3322.8
2016-Feb-04 14:06N 22°12' E 113°34'2836.7
2016-Feb-04 13:21N 22°15' E 114°03'6 7.4
2016-Feb-04 12:34N 22°17' E 114°09'5 2.1
2016-Feb-04 10:18N 22°16' E 114°04'4 5.7
2016-Feb-04 09:34N 22°17' E 114°09'3322.6
2016-Feb-04 08:06N 22°12' E 113°34'2937.2
2016-Feb-04 07:19N 22°16' E 114°05'2 2.7
2016-Feb-04 06:33N 22°17' E 114°07'3114.7
2016-Feb-04 04:28N 22°11' E 113°34'3335.7
2016-Feb-04 03:33N 22°17' E 114°09'2018.5
2016-Feb-04 02:30N 22°11' E 113°49'10 8.9
2016-Feb-04 01:23N 22°11' E 113°38'2935.3
2016-Feb-04 00:33N 22°17' E 114°09'1817.5
2016-Feb-03 23:33N 22°11' E 113°51'7 0.5
2016-Feb-03 09:32N 22°12' E 113°44'2424.1
2016-Feb-03 08:33N 22°17' E 114°09'0 0.1
2016-Feb-03 07:33N 22°17' E 114°09'0 0.1
2016-Feb-03 06:33N 22°17' E 114°09'0 0.2
2016-Feb-03 05:33N 22°17' E 114°09'2 0.6
2016-Feb-03 01:30N 22°20' E 114°09'0 0.0
2016-Feb-03 00:33N 22°20' E 114°09'0 0.0
2016-Feb-02 09:20N 22°20' E 114°09'0 0.0
2016-Feb-02 08:33N 22°20' E 114°09'0 0.0
2016-Feb-02 07:33N 22°20' E 114°09'0 0.0
2016-Feb-02 06:33N 22°20' E 114°09'0 0.0
2016-Feb-02 05:30N 22°20' E 114°09'0 0.0
2016-Feb-02 03:25N 22°20' E 114°09'0 0.0
2016-Feb-02 02:33N 22°20' E 114°09'0 0.0
2016-Feb-02 01:33N 22°20' E 114°09'0 0.0
2016-Feb-02 00:33N 22°20' E 114°09'0 0.0
2016-Feb-01 09:08N 22°20' E 114°09'2 4.0
2016-Feb-01 08:32N 22°17' E 114°09'0 0.0
2016-Feb-01 07:34N 22°17' E 114°09'0 0.0
2016-Feb-01 06:33N 22°17' E 114°09'0 0.0
2016-Feb-01 05:33N 22°17' E 114°09'0 0.0
2016-Feb-01 04:34N 22°17' E 114°09'1 0.8
2016-Feb-01 03:34N 22°18' E 114°09'2 1.5
2016-Feb-01 02:33N 22°20' E 114°09'0 0.0
2016-Feb-01 01:33N 22°20' E 114°09'0 0.0
2016-Feb-01 00:33N 22°20' E 114°09'0 0.0
2016-Jan-30 06:30N 22°20' E 114°09'0 0.0
2016-Jan-30 03:15N 22°20' E 114°09'0 0.0
2016-Jan-30 02:33N 22°20' E 114°09'0 0.0
2016-Jan-30 01:33N 22°20' E 114°09'0 0.0
2016-Jan-30 00:25N 22°20' E 114°09'0 0.0
2016-Jan-29 09:33N 22°20' E 114°09'0 0.0
2016-Jan-29 08:34N 22°20' E 114°09'0 0.0
2016-Jan-29 07:33N 22°20' E 114°09'0 0.0
2016-Jan-29 06:33N 22°20' E 114°09'0 0.0
2016-Jan-29 05:33N 22°20' E 114°09'0 0.0
2016-Jan-29 03:27N 22°20' E 114°09'0 0.0
2016-Jan-29 02:34N 22°20' E 114°09'2 1.1
2016-Jan-29 00:21N 22°17' E 114°09'0 0.1
2016-Jan-28 23:33N 22°17' E 114°09'0 0.0
2016-Jan-28 22:33N 22°17' E 114°09'0 0.0
2016-Jan-28 21:33N 22°17' E 114°09'0 0.0
2016-Jan-28 20:33N 22°17' E 114°09'0 0.0
2016-Jan-28 19:34N 22°17' E 114°09'0 0.0
2016-Jan-28 18:33N 22°17' E 114°09'0 0.0
2016-Jan-28 17:33N 22°17' E 114°09'0 0.0
2016-Jan-28 16:33N 22°17' E 114°09'0 0.0
2016-Jan-28 15:33N 22°17' E 114°09'0 0.0
2016-Jan-28 14:34N 22°17' E 114°09'0 0.0
2016-Jan-28 13:34N 22°17' E 114°09'0 0.0
2016-Jan-28 12:33N 22°17' E 114°09'0 0.0
2016-Jan-28 11:33N 22°17' E 114°09'0 0.0
2016-Jan-28 10:34N 22°17' E 114°09'0 0.1
2016-Jan-28 09:33N 22°17' E 114°09'0 0.1
2016-Jan-28 08:34N 22°17' E 114°09'1 0.7
2016-Jan-28 06:33N 22°18' E 114°08'2 1.9
2016-Jan-28 05:33N 22°19' E 114°09'1 0.9
2016-Jan-28 04:33N 22°20' E 114°09'0 0.0
2016-Jan-28 03:34N 22°20' E 114°09'0 0.0
2016-Jan-28 02:33N 22°20' E 114°09'0 0.0
2016-Jan-28 01:34N 22°20' E 114°09'0 0.0
2016-Jan-28 00:33N 22°20' E 114°09'0 0.0
2016-Jan-27 10:25N 22°20' E 114°09'0 0.0
2016-Jan-27 09:33N 22°20' E 114°09'0 0.0
2016-Jan-27 08:33N 22°20' E 114°09'0 0.0
2016-Jan-27 07:33N 22°20' E 114°09'0 0.0
2016-Jan-27 06:33N 22°20' E 114°09'0 0.0
2016-Jan-27 05:33N 22°20' E 114°09'0 0.0
2016-Jan-27 03:21N 22°20' E 114°09'0 0.0
2016-Jan-27 02:34N 22°20' E 114°09'  

Dump ship's entire track history